Illescas, Spain
Current Conditions -  °F | °C
As of 8:00 PM on Sunday 23 Nov 2014 (Local Time) from LEVS Reporting Station
Few Clouds Few Clouds  
Wind Chill: 59°   Ceiling: Unl
Heat Index: 59°   Visibility: 6mi
Dew Point: 52°   Wind: 2mph
Humidity: 77%   Direction: NA
Pressure: 29.94"   Gusts: NA
Location:  40.12°N, 3.85°W
Report Text: LEVS 231900Z VRB02KT 9999 FEW040 15/11 Q1014
Loading
Personal Weather Stations






























Interactive Weather Map New forecast layout! Learn more

10-Day Weather Forecast

Advertisements
Track Severe Weather on mobile